sensor_id;sensor_type;location;lat;lon;timestamp;P1;durP1;ratioP1;P2;durP2;ratioP2
69900;SDS011;57183;50.930;5.406;2023-04-06T00:01:39;24.00;;;16.75;;
69900;SDS011;57183;50.930;5.406;2023-04-06T00:04:05;29.50;;;19.70;;
69900;SDS011;57183;50.930;5.406;2023-04-06T00:06:31;33.25;;;18.25;;
69900;SDS011;57183;50.930;5.406;2023-04-06T00:08:57;32.97;;;18.25;;
69900;SDS011;57183;50.930;5.406;2023-04-06T00:11:24;27.05;;;18.15;;
69900;SDS011;57183;50.930;5.406;2023-04-06T00:13:50;29.17;;;17.48;;
69900;SDS011;57183;50.930;5.406;2023-04-06T00:16:16;26.52;;;16.77;;
69900;SDS011;57183;50.930;5.406;2023-04-06T00:18:42;25.92;;;15.75;;
69900;SDS011;57183;50.930;5.406;2023-04-06T00:21:11;21.00;;;14.05;;
69900;SDS011;57183;50.930;5.406;2023-04-06T00:23:40;23.23;;;15.32;;
69900;SDS011;57183;50.930;5.406;2023-04-06T00:26:06;26.15;;;17.02;;
69900;SDS011;57183;50.930;5.406;2023-04-06T00:28:33;23.48;;;15.50;;
69900;SDS011;57183;50.930;5.406;2023-04-06T00:30:59;24.58;;;16.33;;
69900;SDS011;57183;50.930;5.406;2023-04-06T00:33:25;23.58;;;15.48;;
69900;SDS011;57183;50.930;5.406;2023-04-06T00:35:50;21.70;;;14.05;;
69900;SDS011;57183;50.930;5.406;2023-04-06T00:38:16;29.73;;;17.08;;
69900;SDS011;57183;50.930;5.406;2023-04-06T00:40:43;25.95;;;18.35;;
69900;SDS011;57183;50.930;5.406;2023-04-06T00:43:11;29.02;;;17.75;;
69900;SDS011;57183;50.930;5.406;2023-04-06T00:45:38;29.95;;;17.17;;
69900;SDS011;57183;50.930;5.406;2023-04-06T00:48:05;26.92;;;17.13;;
69900;SDS011;57183;50.930;5.406;2023-04-06T00:50:32;25.50;;;15.80;;
69900;SDS011;57183;50.930;5.406;2023-04-06T00:53:01;31.20;;;17.10;;
69900;SDS011;57183;50.930;5.406;2023-04-06T00:55:27;28.48;;;17.42;;
69900;SDS011;57183;50.930;5.406;2023-04-06T00:57:57;28.17;;;17.20;;
69900;SDS011;57183;50.930;5.406;2023-04-06T01:00:27;22.58;;;17.10;;
69900;SDS011;57183;50.930;5.406;2023-04-06T01:02:52;24.75;;;16.02;;
69900;SDS011;57183;50.930;5.406;2023-04-06T01:05:18;24.38;;;15.75;;
69900;SDS011;57183;50.930;5.406;2023-04-06T01:07:45;27.63;;;17.65;;
69900;SDS011;57183;50.930;5.406;2023-04-06T01:10:10;25.55;;;16.90;;
69900;SDS011;57183;50.930;5.406;2023-04-06T01:12:47;30.05;;;18.25;;
69900;SDS011;57183;50.930;5.406;2023-04-06T01:15:12;28.35;;;17.92;;
69900;SDS011;57183;50.930;5.406;2023-04-06T01:17:40;26.35;;;17.02;;
69900;SDS011;57183;50.930;5.406;2023-04-06T01:20:06;31.23;;;18.15;;
69900;SDS011;57183;50.930;5.406;2023-04-06T01:22:32;30.42;;;16.40;;
69900;SDS011;57183;50.930;5.406;2023-04-06T01:24:58;28.85;;;17.30;;
69900;SDS011;57183;50.930;5.406;2023-04-06T01:27:23;26.58;;;17.35;;
69900;SDS011;57183;50.930;5.406;2023-04-06T01:29:51;29.45;;;16.02;;
69900;SDS011;57183;50.930;5.406;2023-04-06T01:32:17;30.73;;;18.80;;
69900;SDS011;57183;50.930;5.406;2023-04-06T01:34:45;27.80;;;17.27;;
69900;SDS011;57183;50.930;5.406;2023-04-06T01:37:11;30.92;;;18.30;;
69900;SDS011;57183;50.930;5.406;2023-04-06T01:39:37;30.70;;;18.33;;
69900;SDS011;57183;50.930;5.406;2023-04-06T01:42:02;28.73;;;16.85;;
69900;SDS011;57183;50.930;5.406;2023-04-06T01:44:28;27.80;;;16.92;;
69900;SDS011;57183;50.930;5.406;2023-04-06T01:46:55;34.47;;;18.63;;
69900;SDS011;57183;50.930;5.406;2023-04-06T01:49:21;27.23;;;16.05;;
69900;SDS011;57183;50.930;5.406;2023-04-06T01:51:47;25.27;;;15.52;;
69900;SDS011;57183;50.930;5.406;2023-04-06T01:54:13;26.80;;;16.98;;
69900;SDS011;57183;50.930;5.406;2023-04-06T01:56:38;31.75;;;20.23;;
69900;SDS011;57183;50.930;5.406;2023-04-06T01:59:05;30.80;;;19.20;;
69900;SDS011;57183;50.930;5.406;2023-04-06T02:01:31;27.30;;;16.90;;
69900;SDS011;57183;50.930;5.406;2023-04-06T02:03:57;27.88;;;17.58;;
69900;SDS011;57183;50.930;5.406;2023-04-06T02:06:22;30.13;;;19.65;;
69900;SDS011;57183;50.930;5.406;2023-04-06T02:08:48;27.88;;;18.13;;
69900;SDS011;57183;50.930;5.406;2023-04-06T02:11:14;28.92;;;16.25;;
69900;SDS011;57183;50.930;5.406;2023-04-06T02:13:49;27.55;;;17.35;;
69900;SDS011;57183;50.930;5.406;2023-04-06T02:16:14;28.02;;;16.58;;
69900;SDS011;57183;50.930;5.406;2023-04-06T02:18:40;25.75;;;15.55;;
69900;SDS011;57183;50.930;5.406;2023-04-06T02:21:06;24.88;;;16.23;;
69900;SDS011;57183;50.930;5.406;2023-04-06T02:23:32;29.60;;;18.15;;
69900;SDS011;57183;50.930;5.406;2023-04-06T02:25:57;25.15;;;15.30;;
69900;SDS011;57183;50.930;5.406;2023-04-06T02:28:23;33.20;;;16.23;;
69900;SDS011;57183;50.930;5.406;2023-04-06T02:30:49;31.33;;;17.08;;
69900;SDS011;57183;50.930;5.406;2023-04-06T02:33:14;26.95;;;16.25;;
69900;SDS011;57183;50.930;5.406;2023-04-06T02:35:40;29.48;;;16.90;;
69900;SDS011;57183;50.930;5.406;2023-04-06T02:38:06;30.35;;;16.60;;
69900;SDS011;57183;50.930;5.406;2023-04-06T02:40:31;30.88;;;17.23;;
69900;SDS011;57183;50.930;5.406;2023-04-06T02:42:58;25.08;;;16.23;;
69900;SDS011;57183;50.930;5.406;2023-04-06T02:45:24;27.65;;;16.48;;
69900;SDS011;57183;50.930;5.406;2023-04-06T02:47:51;27.55;;;17.20;;
69900;SDS011;57183;50.930;5.406;2023-04-06T02:50:16;28.63;;;16.25;;
69900;SDS011;57183;50.930;5.406;2023-04-06T02:52:42;26.60;;;15.95;;
69900;SDS011;57183;50.930;5.406;2023-04-06T02:55:15;28.63;;;15.48;;
69900;SDS011;57183;50.930;5.406;2023-04-06T02:57:41;25.08;;;14.90;;
69900;SDS011;57183;50.930;5.406;2023-04-06T03:00:07;24.88;;;16.10;;
69900;SDS011;57183;50.930;5.406;2023-04-06T03:02:33;28.25;;;16.58;;
69900;SDS011;57183;50.930;5.406;2023-04-06T03:04:59;22.90;;;16.42;;
69900;SDS011;57183;50.930;5.406;2023-04-06T03:07:25;25.85;;;15.73;;
69900;SDS011;57183;50.930;5.406;2023-04-06T03:09:50;24.85;;;16.40;;
69900;SDS011;57183;50.930;5.406;2023-04-06T03:12:16;25.60;;;16.73;;
69900;SDS011;57183;50.930;5.406;2023-04-06T03:14:42;27.38;;;15.75;;
69900;SDS011;57183;50.930;5.406;2023-04-06T03:17:08;29.58;;;17.13;;
69900;SDS011;57183;50.930;5.406;2023-04-06T03:19:33;25.60;;;16.48;;
69900;SDS011;57183;50.930;5.406;2023-04-06T03:21:59;23.77;;;15.52;;
69900;SDS011;57183;50.930;5.406;2023-04-06T03:24:25;27.88;;;16.15;;
69900;SDS011;57183;50.930;5.406;2023-04-06T03:26:51;31.92;;;16.60;;
69900;SDS011;57183;50.930;5.406;2023-04-06T03:29:16;33.97;;;16.83;;
69900;SDS011;57183;50.930;5.406;2023-04-06T03:31:42;29.23;;;16.98;;
69900;SDS011;57183;50.930;5.406;2023-04-06T03:34:08;25.70;;;16.88;;
69900;SDS011;57183;50.930;5.406;2023-04-06T03:36:41;27.27;;;16.63;;
69900;SDS011;57183;50.930;5.406;2023-04-06T03:39:07;26.25;;;16.23;;
69900;SDS011;57183;50.930;5.406;2023-04-06T03:41:32;28.15;;;16.50;;
69900;SDS011;57183;50.930;5.406;2023-04-06T03:43:58;25.83;;;16.75;;
69900;SDS011;57183;50.930;5.406;2023-04-06T03:46:26;23.65;;;15.27;;
69900;SDS011;57183;50.930;5.406;2023-04-06T03:48:52;27.95;;;16.50;;
69900;SDS011;57183;50.930;5.406;2023-04-06T03:51:18;24.30;;;15.98;;
69900;SDS011;57183;50.930;5.406;2023-04-06T03:53:44;27.92;;;16.90;;
69900;SDS011;57183;50.930;5.406;2023-04-06T03:56:10;29.38;;;17.35;;
69900;SDS011;57183;50.930;5.406;2023-04-06T03:58:35;26.63;;;15.93;;
69900;SDS011;57183;50.930;5.406;2023-04-06T04:01:01;29.52;;;16.73;;
69900;SDS011;57183;50.930;5.406;2023-04-06T04:03:27;28.48;;;15.60;;
69900;SDS011;57183;50.930;5.406;2023-04-06T04:05:53;29.90;;;16.23;;
69900;SDS011;57183;50.930;5.406;2023-04-06T04:08:20;31.60;;;15.57;;
69900;SDS011;57183;50.930;5.406;2023-04-06T04:10:49;25.85;;;15.13;;
69900;SDS011;57183;50.930;5.406;2023-04-06T04:13:23;25.60;;;14.90;;
69900;SDS011;57183;50.930;5.406;2023-04-06T04:15:49;23.55;;;15.40;;
69900;SDS011;57183;50.930;5.406;2023-04-06T04:18:15;23.90;;;14.70;;
69900;SDS011;57183;50.930;5.406;2023-04-06T04:20:40;23.85;;;14.75;;
69900;SDS011;57183;50.930;5.406;2023-04-06T04:23:06;28.05;;;16.23;;
69900;SDS011;57183;50.930;5.406;2023-04-06T04:25:32;25.75;;;14.57;;
69900;SDS011;57183;50.930;5.406;2023-04-06T04:27:59;24.13;;;14.98;;
69900;SDS011;57183;50.930;5.406;2023-04-06T04:30:25;25.65;;;14.77;;
69900;SDS011;57183;50.930;5.406;2023-04-06T04:32:50;27.77;;;15.80;;
69900;SDS011;57183;50.930;5.406;2023-04-06T04:35:16;28.23;;;16.13;;
69900;SDS011;57183;50.930;5.406;2023-04-06T04:37:42;22.77;;;14.77;;
69900;SDS011;57183;50.930;5.406;2023-04-06T04:40:08;31.60;;;15.80;;
69900;SDS011;57183;50.930;5.406;2023-04-06T04:42:34;23.13;;;13.73;;
69900;SDS011;57183;50.930;5.406;2023-04-06T04:45:00;22.63;;;14.23;;
69900;SDS011;57183;50.930;5.406;2023-04-06T04:47:25;27.30;;;15.90;;
69900;SDS011;57183;50.930;5.406;2023-04-06T04:49:51;25.73;;;15.85;;
69900;SDS011;57183;50.930;5.406;2023-04-06T04:52:17;23.27;;;13.73;;
69900;SDS011;57183;50.930;5.406;2023-04-06T04:54:43;27.48;;;15.43;;
69900;SDS011;57183;50.930;5.406;2023-04-06T04:57:08;24.63;;;15.95;;
69900;SDS011;57183;50.930;5.406;2023-04-06T04:59:34;24.17;;;14.55;;
69900;SDS011;57183;50.930;5.406;2023-04-06T05:02:00;28.27;;;14.98;;
69900;SDS011;57183;50.930;5.406;2023-04-06T05:04:26;22.75;;;14.85;;
69900;SDS011;57183;50.930;5.406;2023-04-06T05:07:02;23.88;;;13.63;;
69900;SDS011;57183;50.930;5.406;2023-04-06T05:09:31;23.23;;;13.65;;
69900;SDS011;57183;50.930;5.406;2023-04-06T05:11:58;22.88;;;14.68;;
69900;SDS011;57183;50.930;5.406;2023-04-06T05:14:25;22.83;;;13.65;;
69900;SDS011;57183;50.930;5.406;2023-04-06T05:16:51;23.38;;;14.00;;
69900;SDS011;57183;50.930;5.406;2023-04-06T05:19:17;23.83;;;13.85;;
69900;SDS011;57183;50.930;5.406;2023-04-06T05:21:43;21.52;;;13.68;;
69900;SDS011;57183;50.930;5.406;2023-04-06T05:24:08;29.63;;;14.80;;
69900;SDS011;57183;50.930;5.406;2023-04-06T05:26:34;21.38;;;12.23;;
69900;SDS011;57183;50.930;5.406;2023-04-06T05:29:18;24.05;;;13.82;;
69900;SDS011;57183;50.930;5.406;2023-04-06T05:31:44;19.92;;;12.50;;
69900;SDS011;57183;50.930;5.406;2023-04-06T05:34:09;20.27;;;12.65;;
69900;SDS011;57183;50.930;5.406;2023-04-06T05:36:35;21.98;;;12.63;;
69900;SDS011;57183;50.930;5.406;2023-04-06T05:39:01;24.60;;;14.02;;
69900;SDS011;57183;50.930;5.406;2023-04-06T05:41:27;23.05;;;14.15;;
69900;SDS011;57183;50.930;5.406;2023-04-06T05:43:52;19.95;;;12.68;;
69900;SDS011;57183;50.930;5.406;2023-04-06T05:46:18;21.15;;;12.52;;
69900;SDS011;57183;50.930;5.406;2023-04-06T05:48:44;23.35;;;12.27;;
69900;SDS011;57183;50.930;5.406;2023-04-06T05:51:10;20.30;;;12.35;;
69900;SDS011;57183;50.930;5.406;2023-04-06T05:53:36;20.20;;;13.00;;
69900;SDS011;57183;50.930;5.406;2023-04-06T05:56:02;16.15;;;10.85;;
69900;SDS011;57183;50.930;5.406;2023-04-06T05:58:28;17.88;;;11.43;;
69900;SDS011;57183;50.930;5.406;2023-04-06T06:00:57;20.75;;;12.40;;
69900;SDS011;57183;50.930;5.406;2023-04-06T06:03:24;23.73;;;12.35;;
69900;SDS011;57183;50.930;5.406;2023-04-06T06:05:58;21.98;;;13.75;;
69900;SDS011;57183;50.930;5.406;2023-04-06T06:08:25;20.80;;;13.43;;
69900;SDS011;57183;50.930;5.406;2023-04-06T06:10:51;21.65;;;13.60;;
69900;SDS011;57183;50.930;5.406;2023-04-06T06:13:16;21.30;;;13.82;;
69900;SDS011;57183;50.930;5.406;2023-04-06T06:15:42;23.92;;;13.63;;
69900;SDS011;57183;50.930;5.406;2023-04-06T06:18:10;18.95;;;12.00;;
69900;SDS011;57183;50.930;5.406;2023-04-06T06:20:36;23.60;;;11.93;;
69900;SDS011;57183;50.930;5.406;2023-04-06T06:23:02;18.48;;;12.20;;
69900;SDS011;57183;50.930;5.406;2023-04-06T06:25:28;18.48;;;11.50;;
69900;SDS011;57183;50.930;5.406;2023-04-06T06:27:55;23.08;;;12.70;;
69900;SDS011;57183;50.930;5.406;2023-04-06T06:30:22;21.08;;;12.90;;
69900;SDS011;57183;50.930;5.406;2023-04-06T06:32:48;27.10;;;15.50;;
69900;SDS011;57183;50.930;5.406;2023-04-06T06:35:15;26.35;;;16.45;;
69900;SDS011;57183;50.930;5.406;2023-04-06T06:37:40;23.83;;;14.20;;
69900;SDS011;57183;50.930;5.406;2023-04-06T06:40:06;21.88;;;13.48;;
69900;SDS011;57183;50.930;5.406;2023-04-06T06:42:33;19.60;;;11.50;;
69900;SDS011;57183;50.930;5.406;2023-04-06T06:44:59;18.40;;;11.20;;
69900;SDS011;57183;50.930;5.406;2023-04-06T06:47:25;23.48;;;13.27;;
69900;SDS011;57183;50.930;5.406;2023-04-06T06:49:51;18.85;;;13.38;;
69900;SDS011;57183;50.930;5.406;2023-04-06T06:52:17;17.70;;;11.95;;
69900;SDS011;57183;50.930;5.406;2023-04-06T06:54:42;22.58;;;13.18;;
69900;SDS011;57183;50.930;5.406;2023-04-06T06:57:08;19.70;;;12.10;;
69900;SDS011;57183;50.930;5.406;2023-04-06T06:59:34;19.17;;;11.82;;
69900;SDS011;57183;50.930;5.406;2023-04-06T07:02:00;20.83;;;11.77;;
69900;SDS011;57183;50.930;5.406;2023-04-06T07:04:25;23.42;;;12.07;;
69900;SDS011;57183;50.930;5.406;2023-04-06T07:06:51;16.85;;;10.43;;
69900;SDS011;57183;50.930;5.406;2023-04-06T07:09:17;16.35;;;9.55;;
69900;SDS011;57183;50.930;5.406;2023-04-06T07:11:44;16.70;;;12.07;;
69900;SDS011;57183;50.930;5.406;2023-04-06T07:14:09;19.80;;;11.40;;
69900;SDS011;57183;50.930;5.406;2023-04-06T07:16:36;15.75;;;10.18;;
69900;SDS011;57183;50.930;5.406;2023-04-06T07:19:02;18.00;;;11.00;;
69900;SDS011;57183;50.930;5.406;2023-04-06T07:21:28;16.55;;;9.77;;
69900;SDS011;57183;50.930;5.406;2023-04-06T07:23:54;16.15;;;10.45;;
69900;SDS011;57183;50.930;5.406;2023-04-06T07:26:19;20.65;;;10.35;;
69900;SDS011;57183;50.930;5.406;2023-04-06T07:28:45;13.30;;;10.80;;
69900;SDS011;57183;50.930;5.406;2023-04-06T07:31:11;17.50;;;11.80;;
69900;SDS011;57183;50.930;5.406;2023-04-06T07:33:37;17.77;;;9.63;;
69900;SDS011;57183;50.930;5.406;2023-04-06T07:36:03;18.17;;;9.32;;
69900;SDS011;57183;50.930;5.406;2023-04-06T07:38:29;16.40;;;9.57;;
69900;SDS011;57183;50.930;5.406;2023-04-06T07:40:55;16.88;;;10.23;;
69900;SDS011;57183;50.930;5.406;2023-04-06T07:43:21;23.20;;;10.85;;
69900;SDS011;57183;50.930;5.406;2023-04-06T07:45:46;17.63;;;9.27;;
69900;SDS011;57183;50.930;5.406;2023-04-06T07:48:12;17.52;;;10.48;;
69900;SDS011;57183;50.930;5.406;2023-04-06T07:50:38;15.80;;;10.10;;
69900;SDS011;57183;50.930;5.406;2023-04-06T07:53:04;17.42;;;10.40;;
69900;SDS011;57183;50.930;5.406;2023-04-06T07:55:30;16.58;;;9.85;;
69900;SDS011;57183;50.930;5.406;2023-04-06T07:57:55;13.48;;;9.57;;
69900;SDS011;57183;50.930;5.406;2023-04-06T08:00:21;15.43;;;9.95;;
69900;SDS011;57183;50.930;5.406;2023-04-06T08:02:47;11.40;;;8.43;;
69900;SDS011;57183;50.930;5.406;2023-04-06T08:05:13;11.75;;;8.18;;
69900;SDS011;57183;50.930;5.406;2023-04-06T08:07:38;17.23;;;9.48;;
69900;SDS011;57183;50.930;5.406;2023-04-06T08:10:04;18.35;;;9.82;;
69900;SDS011;57183;50.930;5.406;2023-04-06T08:12:31;16.77;;;9.60;;
69900;SDS011;57183;50.930;5.406;2023-04-06T08:14:58;15.32;;;8.85;;
69900;SDS011;57183;50.930;5.406;2023-04-06T08:17:24;13.60;;;8.57;;
69900;SDS011;57183;50.930;5.406;2023-04-06T08:19:50;15.20;;;10.18;;
69900;SDS011;57183;50.930;5.406;2023-04-06T08:22:16;17.20;;;10.15;;
69900;SDS011;57183;50.930;5.406;2023-04-06T08:24:42;17.10;;;8.30;;
69900;SDS011;57183;50.930;5.406;2023-04-06T08:27:08;18.15;;;10.20;;
69900;SDS011;57183;50.930;5.406;2023-04-06T08:29:34;15.10;;;8.75;;
69900;SDS011;57183;50.930;5.406;2023-04-06T08:31:59;16.17;;;8.68;;
69900;SDS011;57183;50.930;5.406;2023-04-06T08:34:28;15.15;;;9.68;;
69900;SDS011;57183;50.930;5.406;2023-04-06T08:36:53;18.75;;;10.32;;
69900;SDS011;57183;50.930;5.406;2023-04-06T08:39:19;22.58;;;8.98;;
69900;SDS011;57183;50.930;5.406;2023-04-06T08:41:50;18.33;;;7.40;;
69900;SDS011;57183;50.930;5.406;2023-04-06T08:44:17;16.20;;;8.82;;
69900;SDS011;57183;50.930;5.406;2023-04-06T08:46:43;16.88;;;9.57;;
69900;SDS011;57183;50.930;5.406;2023-04-06T08:49:09;20.27;;;9.90;;
69900;SDS011;57183;50.930;5.406;2023-04-06T08:51:36;17.63;;;10.05;;
69900;SDS011;57183;50.930;5.406;2023-04-06T08:54:03;23.08;;;8.98;;
69900;SDS011;57183;50.930;5.406;2023-04-06T08:56:28;18.17;;;9.77;;
69900;SDS011;57183;50.930;5.406;2023-04-06T08:58:55;15.90;;;9.82;;
69900;SDS011;57183;50.930;5.406;2023-04-06T09:01:22;14.48;;;8.32;;
69900;SDS011;57183;50.930;5.406;2023-04-06T09:03:50;15.25;;;8.18;;
69900;SDS011;57183;50.930;5.406;2023-04-06T09:06:20;17.75;;;9.65;;
69900;SDS011;57183;50.930;5.406;2023-04-06T09:08:46;14.50;;;8.73;;
69900;SDS011;57183;50.930;5.406;2023-04-06T09:11:12;16.13;;;8.48;;
69900;SDS011;57183;50.930;5.406;2023-04-06T09:13:47;14.95;;;7.82;;
69900;SDS011;57183;50.930;5.406;2023-04-06T09:16:14;17.80;;;9.57;;
69900;SDS011;57183;50.930;5.406;2023-04-06T09:18:41;15.60;;;7.90;;
69900;SDS011;57183;50.930;5.406;2023-04-06T09:21:07;12.23;;;7.60;;
69900;SDS011;57183;50.930;5.406;2023-04-06T09:23:33;10.93;;;7.28;;
69900;SDS011;57183;50.930;5.406;2023-04-06T09:28:45;12.82;;;8.02;;
69900;SDS011;57183;50.930;5.406;2023-04-06T09:31:12;11.77;;;7.80;;
69900;SDS011;57183;50.930;5.406;2023-04-06T09:33:40;12.65;;;7.32;;
69900;SDS011;57183;50.930;5.406;2023-04-06T09:36:07;14.88;;;7.38;;
69900;SDS011;57183;50.930;5.406;2023-04-06T09:38:36;13.13;;;7.00;;
69900;SDS011;57183;50.930;5.406;2023-04-06T09:41:03;15.25;;;6.93;;
69900;SDS011;57183;50.930;5.406;2023-04-06T09:43:29;13.73;;;6.65;;
69900;SDS011;57183;50.930;5.406;2023-04-06T09:45:55;11.55;;;6.30;;
69900;SDS011;57183;50.930;5.406;2023-04-06T09:48:22;9.70;;;6.22;;
69900;SDS011;57183;50.930;5.406;2023-04-06T09:50:50;10.73;;;6.05;;
69900;SDS011;57183;50.930;5.406;2023-04-06T09:53:25;7.10;;;4.43;;
69900;SDS011;57183;50.930;5.406;2023-04-06T09:55:52;8.88;;;6.05;;
69900;SDS011;57183;50.930;5.406;2023-04-06T09:58:22;11.65;;;6.55;;
69900;SDS011;57183;50.930;5.406;2023-04-06T10:03:21;13.55;;;6.80;;
69900;SDS011;57183;50.930;5.406;2023-04-06T10:06:05;9.48;;;5.70;;
69900;SDS011;57183;50.930;5.406;2023-04-06T10:08:35;9.73;;;6.53;;
69900;SDS011;57183;50.930;5.406;2023-04-06T10:11:05;11.23;;;6.75;;
69900;SDS011;57183;50.930;5.406;2023-04-06T10:13:32;10.10;;;5.80;;
69900;SDS011;57183;50.930;5.406;2023-04-06T10:15:58;11.50;;;6.90;;
69900;SDS011;57183;50.930;5.406;2023-04-06T10:18:26;8.15;;;5.82;;
69900;SDS011;57183;50.930;5.406;2023-04-06T10:20:57;8.88;;;6.45;;
69900;SDS011;57183;50.930;5.406;2023-04-06T10:23:37;11.90;;;7.43;;
69900;SDS011;57183;50.930;5.406;2023-04-06T10:26:12;11.30;;;6.82;;
69900;SDS011;57183;50.930;5.406;2023-04-06T10:28:41;9.95;;;6.93;;
69900;SDS011;57183;50.930;5.406;2023-04-06T10:31:07;8.95;;;6.55;;
69900;SDS011;57183;50.930;5.406;2023-04-06T10:33:33;15.00;;;7.43;;
69900;SDS011;57183;50.930;5.406;2023-04-06T10:36:21;9.10;;;7.03;;
69900;SDS011;57183;50.930;5.406;2023-04-06T10:38:53;15.10;;;7.95;;
69900;SDS011;57183;50.930;5.406;2023-04-06T10:41:23;13.73;;;7.28;;
69900;SDS011;57183;50.930;5.406;2023-04-06T10:43:55;9.40;;;6.70;;
69900;SDS011;57183;50.930;5.406;2023-04-06T10:46:25;10.95;;;6.80;;
69900;SDS011;57183;50.930;5.406;2023-04-06T10:48:51;12.05;;;7.22;;
69900;SDS011;57183;50.930;5.406;2023-04-06T10:51:18;10.82;;;6.78;;
69900;SDS011;57183;50.930;5.406;2023-04-06T10:53:48;10.57;;;7.00;;
69900;SDS011;57183;50.930;5.406;2023-04-06T10:56:15;12.55;;;6.05;;
69900;SDS011;57183;50.930;5.406;2023-04-06T10:58:45;14.73;;;8.30;;
69900;SDS011;57183;50.930;5.406;2023-04-06T11:01:12;10.20;;;7.05;;
69900;SDS011;57183;50.930;5.406;2023-04-06T11:03:43;10.27;;;6.20;;
69900;SDS011;57183;50.930;5.406;2023-04-06T11:06:09;9.85;;;6.95;;
69900;SDS011;57183;50.930;5.406;2023-04-06T11:08:35;10.88;;;6.80;;
69900;SDS011;57183;50.930;5.406;2023-04-06T11:11:05;10.82;;;6.32;;
69900;SDS011;57183;50.930;5.406;2023-04-06T11:16:04;13.63;;;8.05;;
69900;SDS011;57183;50.930;5.406;2023-04-06T11:18:30;13.90;;;7.70;;
69900;SDS011;57183;50.930;5.406;2023-04-06T11:20:56;10.40;;;7.05;;
69900;SDS011;57183;50.930;5.406;2023-04-06T11:23:25;11.98;;;6.88;;
69900;SDS011;57183;50.930;5.406;2023-04-06T11:25:52;7.90;;;5.53;;
69900;SDS011;57183;50.930;5.406;2023-04-06T11:28:19;10.50;;;6.65;;
69900;SDS011;57183;50.930;5.406;2023-04-06T11:30:45;13.13;;;6.45;;
69900;SDS011;57183;50.930;5.406;2023-04-06T11:33:19;11.98;;;7.78;;
69900;SDS011;57183;50.930;5.406;2023-04-06T11:35:46;10.57;;;6.97;;
69900;SDS011;57183;50.930;5.406;2023-04-06T11:38:11;12.35;;;6.65;;
69900;SDS011;57183;50.930;5.406;2023-04-06T11:40:37;8.73;;;6.47;;
69900;SDS011;57183;50.930;5.406;2023-04-06T11:43:03;11.65;;;6.72;;
69900;SDS011;57183;50.930;5.406;2023-04-06T11:45:38;12.07;;;7.63;;
69900;SDS011;57183;50.930;5.406;2023-04-06T11:48:17;13.05;;;6.78;;
69900;SDS011;57183;50.930;5.406;2023-04-06T11:50:46;9.13;;;6.10;;
69900;SDS011;57183;50.930;5.406;2023-04-06T11:53:13;8.82;;;5.00;;
69900;SDS011;57183;50.930;5.406;2023-04-06T11:55:39;8.55;;;6.18;;
69900;SDS011;57183;50.930;5.406;2023-04-06T11:58:05;7.90;;;5.32;;
69900;SDS011;57183;50.930;5.406;2023-04-06T12:00:32;5.53;;;4.55;;
69900;SDS011;57183;50.930;5.406;2023-04-06T12:02:59;6.32;;;4.93;;
69900;SDS011;57183;50.930;5.406;2023-04-06T12:05:26;7.88;;;5.15;;
69900;SDS011;57183;50.930;5.406;2023-04-06T12:07:52;6.70;;;4.85;;
69900;SDS011;57183;50.930;5.406;2023-04-06T12:10:17;5.72;;;4.60;;
69900;SDS011;57183;50.930;5.406;2023-04-06T12:12:43;8.73;;;5.10;;
69900;SDS011;57183;50.930;5.406;2023-04-06T12:15:09;6.63;;;5.07;;
69900;SDS011;57183;50.930;5.406;2023-04-06T12:17:35;9.38;;;5.00;;
69900;SDS011;57183;50.930;5.406;2023-04-06T12:20:01;7.22;;;5.18;;
69900;SDS011;57183;50.930;5.406;2023-04-06T12:22:27;8.88;;;5.35;;
69900;SDS011;57183;50.930;5.406;2023-04-06T12:24:53;8.38;;;6.00;;
69900;SDS011;57183;50.930;5.406;2023-04-06T12:27:19;8.65;;;5.57;;
69900;SDS011;57183;50.930;5.406;2023-04-06T12:29:45;7.53;;;5.47;;
69900;SDS011;57183;50.930;5.406;2023-04-06T12:32:11;8.52;;;5.32;;
69900;SDS011;57183;50.930;5.406;2023-04-06T12:34:37;7.82;;;5.25;;
69900;SDS011;57183;50.930;5.406;2023-04-06T12:37:03;9.35;;;6.10;;
69900;SDS011;57183;50.930;5.406;2023-04-06T12:39:28;8.13;;;5.68;;
69900;SDS011;57183;50.930;5.406;2023-04-06T12:41:55;7.63;;;5.95;;
69900;SDS011;57183;50.930;5.406;2023-04-06T12:44:22;9.27;;;5.95;;
69900;SDS011;57183;50.930;5.406;2023-04-06T12:46:48;9.68;;;5.97;;
69900;SDS011;57183;50.930;5.406;2023-04-06T12:49:13;11.07;;;6.15;;
69900;SDS011;57183;50.930;5.406;2023-04-06T12:51:41;9.05;;;6.78;;
69900;SDS011;57183;50.930;5.406;2023-04-06T12:54:07;6.57;;;5.88;;
69900;SDS011;57183;50.930;5.406;2023-04-06T12:56:33;7.18;;;5.85;;
69900;SDS011;57183;50.930;5.406;2023-04-06T12:58:58;8.32;;;5.55;;
69900;SDS011;57183;50.930;5.406;2023-04-06T13:01:24;9.32;;;5.45;;
69900;SDS011;57183;50.930;5.406;2023-04-06T13:03:52;9.77;;;5.28;;
69900;SDS011;57183;50.930;5.406;2023-04-06T13:06:18;6.28;;;5.68;;
69900;SDS011;57183;50.930;5.406;2023-04-06T13:08:44;6.00;;;4.63;;
69900;SDS011;57183;50.930;5.406;2023-04-06T13:11:12;7.53;;;5.43;;
69900;SDS011;57183;50.930;5.406;2023-04-06T13:13:37;9.52;;;5.90;;
69900;SDS011;57183;50.930;5.406;2023-04-06T13:16:05;8.27;;;5.93;;
69900;SDS011;57183;50.930;5.406;2023-04-06T13:18:33;7.47;;;5.50;;
69900;SDS011;57183;50.930;5.406;2023-04-06T13:20:59;7.25;;;6.22;;
69900;SDS011;57183;50.930;5.406;2023-04-06T13:23:25;10.82;;;6.28;;
69900;SDS011;57183;50.930;5.406;2023-04-06T13:26:24;7.78;;;6.20;;
69900;SDS011;57183;50.930;5.406;2023-04-06T13:28:43;10.40;;;6.32;;
69900;SDS011;57183;50.930;5.406;2023-04-06T13:31:09;8.73;;;6.43;;
69900;SDS011;57183;50.930;5.406;2023-04-06T13:33:35;9.15;;;5.85;;
69900;SDS011;57183;50.930;5.406;2023-04-06T13:36:00;8.30;;;5.70;;
69900;SDS011;57183;50.930;5.406;2023-04-06T13:38:26;7.30;;;5.50;;
69900;SDS011;57183;50.930;5.406;2023-04-06T13:40:52;6.63;;;5.63;;
69900;SDS011;57183;50.930;5.406;2023-04-06T13:43:18;6.18;;;5.35;;
69900;SDS011;57183;50.930;5.406;2023-04-06T13:45:52;10.95;;;6.80;;
69900;SDS011;57183;50.930;5.406;2023-04-06T13:48:22;7.72;;;5.57;;
69900;SDS011;57183;50.930;5.406;2023-04-06T13:50:49;9.07;;;6.28;;
69900;SDS011;57183;50.930;5.406;2023-04-06T13:53:15;7.43;;;5.55;;
69900;SDS011;57183;50.930;5.406;2023-04-06T13:55:40;6.82;;;5.45;;
69900;SDS011;57183;50.930;5.406;2023-04-06T13:58:06;7.47;;;5.78;;
69900;SDS011;57183;50.930;5.406;2023-04-06T14:00:32;8.93;;;5.97;;
69900;SDS011;57183;50.930;5.406;2023-04-06T14:02:58;7.85;;;6.30;;
69900;SDS011;57183;50.930;5.406;2023-04-06T14:05:23;6.45;;;5.68;;
69900;SDS011;57183;50.930;5.406;2023-04-06T14:07:49;6.32;;;4.32;;
69900;SDS011;57183;50.930;5.406;2023-04-06T14:10:15;8.07;;;5.95;;
69900;SDS011;57183;50.930;5.406;2023-04-06T14:12:41;5.63;;;5.10;;
69900;SDS011;57183;50.930;5.406;2023-04-06T14:15:10;7.47;;;5.72;;
69900;SDS011;57183;50.930;5.406;2023-04-06T14:17:36;5.68;;;4.88;;
69900;SDS011;57183;50.930;5.406;2023-04-06T14:20:02;5.80;;;4.93;;
69900;SDS011;57183;50.930;5.406;2023-04-06T14:22:29;7.53;;;6.05;;
69900;SDS011;57183;50.930;5.406;2023-04-06T14:24:55;6.05;;;5.45;;
69900;SDS011;57183;50.930;5.406;2023-04-06T14:27:20;7.35;;;5.13;;
69900;SDS011;57183;50.930;5.406;2023-04-06T14:29:47;7.57;;;5.82;;
69900;SDS011;57183;50.930;5.406;2023-04-06T14:32:12;8.05;;;5.78;;
69900;SDS011;57183;50.930;5.406;2023-04-06T14:34:38;9.38;;;6.28;;
69900;SDS011;57183;50.930;5.406;2023-04-06T14:37:04;6.30;;;5.55;;